WEATHER DATA

YESTERDAY
Time Temp. Dewp. Hum. Wind dir Wind speed Wind gust Bar. 1h Prec. 24h Prec.
00:06 19.5 13 66 90 0.3 0.8 1019.4 0.0000 0.0000
00:16 19.3 13 67 90 0.3 0.8 1019.4 0.0000 0.0000
00:27 19.2 12.9 67 90 0.3 0.8 1019.5 0.0000 0.0000
00:37 19.1 12.8 67 90 0.3 0.8 1019.4 0.0000 0.0000
00:47 19 12.7 67 90 0.3 0.8 1019.4 0.0000 0.0000
00:57 18.8 12.5 67 90 0.3 0.8 1019.4 0.0000 0.0000
01:07 18.7 12.7 68 90 0.3 0.8 1019.3 0.0000 0.0000
01:17 18.6 12.6 68 90 0.3 0.8 1019.4 0.0000 0.0000
01:27 18.5 12.7 69 90 0.3 0.8 1019.5 0.0000 0.0000
01:37 18.4 12.6 69 90 0.3 0.8 1019.4 0.0000 0.0000
01:47 18.3 12.5 69 90 0.3 0.8 1019.4 0.0000 0.0000
01:57 18.2 12.6 70 90 0.3 0.8 1019.4 0.0000 0.0000
02:08 18.1 12.5 70 90 0.3 0.8 1019.3 0.0000 0.0000
02:18 18.1 12.5 70 90 0.3 0.8 1019.2 0.0000 0.0000
02:27 18 12.5 70 90 0.3 0.8 1019.2 0.0000 0.0000
02:37 18 12.7 71 90 0.3 0.8 1019.1 0.0000 0.0000
02:48 17.9 12.6 71 90 0.3 0.8 1019.2 0.0000 0.0000
02:58 17.9 12.6 71 90 0.3 0.8 1019.2 0.0000 0.0000
03:08 17.8 12.5 71 90 0.3 0.8 1019.3 0.0000 0.0000
03:18 17.8 12.5 71 90 0.3 0.8 1019.3 0.0000 0.0000
03:28 17.7 12.4 71 90 0.3 0.8 1019.4 0.0000 0.0000
03:38 17.7 12.4 71 90 0.3 0.8 1019.4 0.0000 0.0000
03:48 17.6 12.5 72 90 0.3 0.8 1019.4 0.0000 0.0000
03:59 17.5 12.4 72 90 0.3 0.8 1019.4 0.0000 0.0000
04:09 17.4 12.3 72 90 0.3 0.8 1019.4 0.0000 0.0000
04:19 17.3 12.2 72 90 0.3 0.8 1019.4 0.0000 0.0000
04:29 17.1 12 72 90 0.3 0.8 1019.4 0.0000 0.0000
04:39 17 12.1 73 90 0.3 0.8 1019.4 0.0000 0.0000
04:49 16.9 12 73 90 0.3 0.8 1019.5 0.0000 0.0000
04:59 16.8 11.9 73 90 0.3 0.8 1019.5 0.0000 0.0000
05:10 16.7 12 74 90 0.3 0.8 1019.5 0.0000 0.0000
05:20 16.5 11.9 74 90 0.3 0.8 1019.5 0.0000 0.0000
05:30 16.4 11.8 74 90 0.3 0.8 1019.7 0.0000 0.0000
05:39 16.4 12 75 90 0.3 0.8 1019.7 0.0000 0.0000
05:50 16.3 11.9 75 90 0.3 0.8 1019.7 0.0000 0.0000
06:00 16.2 11.8 75 90 0.3 0.8 1019.7 0.0000 0.0000
06:10 16.2 12 76 90 0.3 0.8 1019.7 0.0000 0.0000
06:20 16.3 12.1 76 90 0.3 0.8 1019.8 0.0000 0.0000
06:31 16.5 12.5 77 90 0.3 0.8 1019.9 0.0000 0.0000
06:40 16.7 12.7 77 90 0.3 0.8 1019.9 0.0000 0.0000
06:50 16.8 12.7 77 90 0.3 0.8 1020 0.0000 0.0000
07:01 17 12.9 77 90 0.3 0.8 1019.9 0.0000 0.0000
07:11 17.4 13.3 77 90 0.3 0.8 1020 0.0000 0.0000
07:21 17.8 13.7 77 90 0.3 0.8 1020 0.0000 0.0000
07:31 18.3 14.2 77 90 0.3 0.8 1020 0.0000 0.0000
07:42 18.9 14.8 77 90 0.3 0.8 1020 0.0000 0.0000
07:51 19.6 15.5 77 90 0.3 0.8 1020 0.0000 0.0000
08:01 20.4 16 76 90 0.3 0.8 1020.2 0.0000 0.0000
08:12 21.2 16.6 75 90 0.3 0.8 1020.3 0.0000 0.0000
08:22 21.9 17.1 74 90 0.3 0.8 1020.3 0.0000 0.0000
08:32 22.6 17.3 72 90 0.3 0.8 1020.3 0.0000 0.0000
08:42 23.3 17.7 71 90 0.3 0.8 1020.3 0.0000 0.0000
08:52 23.9 17.9 69 90 0.3 0.8 1020.4 0.0000 0.0000
09:02 24.5 18 67 90 0.3 0.8 1020.4 0.0000 0.0000
09:12 25.1 18.3 66 90 0.3 0.8 1020.4 0.0000 0.0000
09:22 25.6 18.5 65 90 0.3 0.8 1020.5 0.0000 0.0000
09:33 26.1 18.8 64 90 0.3 0.8 1020.5 0.0000 0.0000
09:43 26.7 19.1 63 90 0.3 0.8 1020.5 0.0000 0.0000
09:52 27.1 18.9 61 90 0.3 0.8 1020.6 0.0000 0.0000
10:03 27.8 19.3 60 90 0.3 0.8 1020.6 0.0000 0.0000
10:13 28.1 19.1 58 90 0.3 0.8 1020.7 0.0000 0.0000
10:23 28.4 19.3 58 90 0.3 0.8 1020.8 0.0000 0.0000
10:33 28.6 19.3 57 90 0.3 0.8 1020.8 0.0000 0.0000
10:43 28.6 19.3 57 90 0.3 0.8 1020.7 0.0000 0.0000
10:53 28.5 19.2 57 90 0.3 0.8 1020.7 0.0000 0.0000
11:03 28.4 18.8 56 90 0.3 0.8 1020.7 0.0000 0.0000
11:13 28.6 19.3 57 90 0.3 0.8 1020.7 0.0000 0.0000
11:23 29.2 19.5 56 90 0.3 0.8 1020.6 0.0000 0.0000
11:33 29.9 20.2 56 90 0.3 0.8 1020.4 0.0000 0.0000
11:43 30.3 20.3 55 90 0.3 0.8 1020.3 0.0000 0.0000
11:53 30.7 20 53 90 0.3 0.8 1020.3 0.0000 0.0000
12:03 30.8 19.8 52 90 0.3 0.8 1020.2 0.0000 0.0000
12:13 31 20 52 90 0.3 0.8 1020.2 0.0000 0.0000
12:24 31.3 20.3 52 90 0.3 0.8 1020.1 0.0000 0.0000
12:33 31.5 20.1 51 90 0.3 0.8 1020 0.0000 0.0000
12:43 31.7 20.3 51 90 0.3 0.8 1020 0.0000 0.0000
12:54 31.8 20.1 50 90 0.3 0.8 1019.9 0.0000 0.0000
13:03 31.9 19.9 49 90 0.3 0.8 1019.9 0.0000 0.0000
13:13 32.1 19.4 47 90 0.3 0.8 1019.9 0.0000 0.0000
13:23 32.1 19 46 90 0.3 0.8 1019.8 0.0000 0.0000
13:34 32.2 18.8 45 90 0.3 0.8 1019.8 0.0000 0.0000
13:43 32.2 18.4 44 90 0.3 0.8 1019.7 0.0000 0.0000
13:53 32.3 18.5 44 90 0.3 0.8 1019.6 0.0000 0.0000
14:04 32.4 18.6 44 90 0.3 0.8 1019.5 0.0000 0.0000
14:14 32.5 18.3 43 90 0.3 0.8 1019.4 0.0000 0.0000
14:23 32.5 18.3 43 90 0.3 0.8 1019.2 0.0000 0.0000
14:33 32.5 17.9 42 90 0.3 0.8 1019.1 0.0000 0.0000
14:44 32.6 18 42 90 0.3 0.8 1019.1 0.0000 0.0000
14:53 32.7 18.1 42 90 0.3 0.8 1019 0.0000 0.0000
15:03 32.9 17.9 41 90 0.3 0.8 1018.9 0.0000 0.0000
15:14 33 18 41 90 0.3 0.8 1018.8 0.0000 0.0000
15:24 32.9 17.1 39 90 0.3 0.8 1018.6 0.0000 0.0000
15:33 32.9 17.1 39 90 0.3 0.8 1018.5 0.0000 0.0000
15:44 32.9 17.1 39 90 0.3 0.8 1018.4 0.0000 0.0000
15:54 32.9 16.7 38 90 0.3 0.8 1018.3 0.0000 0.0000
16:04 32.8 16.6 38 90 0.3 0.8 1018.2 0.0000 0.0000
16:13 32.7 16.5 38 90 0.3 0.8 1018.2 0.0000 0.0000
16:24 32.6 16.4 38 90 0.3 0.8 1018 0.0000 0.0000
16:34 32.6 16.4 38 90 0.3 0.8 1017.9 0.0000 0.0000
16:43 32.6 16.4 38 90 0.3 0.8 1017.9 0.0000 0.0000
16:54 32.5 16.4 38 90 0.3 0.8 1017.8 0.0000 0.0000
17:04 32.4 16.3 38 90 0.3 0.8 1017.7 0.0000 0.0000
17:14 32.4 16.3 38 90 0.3 0.8 1017.7 0.0000 0.0000
17:24 32.3 16.2 38 90 0.3 0.8 1017.5 0.0000 0.0000
17:34 32.2 15.7 37 90 0.3 0.8 1017.4 0.0000 0.0000
17:44 32 15.9 38 90 0.3 0.8 1017.4 0.0000 0.0000
17:54 31.9 16.2 39 90 0.3 0.8 1017.4 0.0000 0.0000
18:05 31.7 15.6 38 90 0.3 0.8 1017.3 0.0000 0.0000
18:14 31.5 15.9 39 90 0.3 0.8 1017.2 0.0000 0.0000
18:24 31.1 16.3 41 90 0.3 0.8 1017.2 0.0000 0.0000
18:34 30.6 16.6 43 90 0.3 0.8 1017.2 0.0000 0.0000
18:45 30.3 16.3 43 90 0.3 0.8 1017.2 0.0000 0.0000
18:54 29.9 16.7 45 90 0.3 0.8 1017.1 0.0000 0.0000
19:04 29.4 16.6 46 90 0.3 0.8 1017.1 0.0000 0.0000
19:15 28.9 16.8 48 90 0.3 0.8 1017.1 0.0000 0.0000
19:24 28.4 16.7 49 90 0.3 0.8 1017.2 0.0000 0.0000
19:34 27.9 16.2 49 90 0.3 0.8 1017.1 0.0000 0.0000
19:45 27.3 16 50 90 0.3 0.8 1017.2 0.0000 0.0000
19:55 26.9 15.6 50 90 0.3 0.8 1017.3 0.0000 0.0000
20:04 26.3 15.4 51 90 0.3 0.8 1017.2 0.0000 0.0000
20:14 25.7 15.1 52 90 0.3 0.8 1017.3 0.0000 0.0000
20:25 25.2 14.9 53 90 0.3 0.8 1017.3 0.0000 0.0000
20:35 24.7 14.5 53 90 0.3 0.8 1017.3 0.0000 0.0000
20:45 24.3 14.4 54 90 0.3 0.8 1017.4 0.0000 0.0000
20:55 23.9 14.3 55 90 0.3 0.8 1017.3 0.0000 0.0000
21:05 23.5 13.9 55 90 0.3 0.8 1017.3 0.0000 0.0000
21:15 23.1 13.9 56 90 0.3 0.8 1017.3 0.0000 0.0000
21:25 22.8 13.8 57 90 0.3 0.8 1017.3 0.0000 0.0000
21:35 22.5 13.6 57 90 0.3 0.8 1017.3 0.0000 0.0000
21:45 22.3 13.6 58 90 0.3 0.8 1017.3 0.0000 0.0000
21:55 22 13.6 59 90 0.3 0.8 1017.3 0.0000 0.0000
22:06 21.8 13.4 59 90 0.3 0.8 1017.3 0.0000 0.0000
22:15 21.5 13.4 60 90 0.3 0.8 1017.3 0.0000 0.0000
22:25 21.4 13.3 60 90 0.3 0.8 1017.3 0.0000 0.0000
22:35 21.2 13.4 61 90 0.3 0.8 1017.3 0.0000 0.0000
22:45 21 13.2 61 90 0.3 0.8 1017.4 0.0000 0.0000
22:55 20.9 13.4 62 90 0.3 0.8 1017.5 0.0000 0.0000
23:05 20.7 13.2 62 90 0.3 0.8 1017.5 0.0000 0.0000
23:16 20.6 13.1 62 90 0.3 0.8 1017.5 0.0000 0.0000
23:25 20.5 13.2 63 90 0.3 0.8 1017.4 0.0000 0.0000
23:35 20.4 13.1 63 90 0.3 0.8 1017.4 0.0000 0.0000
23:45 20.3 13.3 64 90 0.3 0.8 1017.5 0.0000 0.0000
23:56 20.2 13.2 64 90 0.3 0.8 1017.4 0.0000 0.0000

DAY STATISTIC

2018-08-19
TEMPERATURE
AVERAGE
24.6
HIGH
33.0
15:14
LOW
16.2
06:00
PRESSURE
AVERAGE
1019.0
HIGH
1020.8
10:23
LOW
1017.1
18:54
DEWPOINT
AVERAGE
15.4
HIGH
20.3
11:43
LOW
11.8
05:30
HUMIDITY
AVERAGE
59
HIGH
77
06:31
LOW
37
17:34
WIND SPEED
AVERAGE
0.3
HIGH
0.3
00:06
WIND GUST
AVERAGE
0.8
HIGH
0.8
00:06
WIND DIRECTION
PREVAILING
E
100%
N
0.0
NE
0.0
E
100.0
SE
0.0
S
0.0
SW
0.0
W
0.0
NW
0.0
PRECIPITATION
RAIN HOUR
0.0
RAIN DAY
0.0
TEMPERATURE (°C)
LOW
16.2
HIGH
33.0
AVERAGE
24.6
PRESSURE (hpa)
LOW
1017.1
HIGH
1020.8
AVERAGE
1019.0
DEVICE